Time;durP1;ratioP1;P1;durP2;ratioP2;P2;SDS_P1;SDS_P2;PMS_P1;PMS_P2;Temp;Humidity;BMP_temperature;BMP_pressure;BME280_temperature;BME280_humidity;BME280_pressure;Samples;Min_cycle;Max_cycle;Signal;HPM_P1;HPM_P2
2024/04/25 00:02:12;;;;;;;14.57;9.18;;;;;;;8.66;67.87;98289.88;5416282;26;20040;-46
2024/04/25 00:04:37;;;;;;;11.60;8.23;;;;;;;8.65;68.44;98291.66;5416163;26;20014;-45
2024/04/25 00:07:03;;;;;;;12.98;8.52;;;;;;;8.76;69.07;98293.72;5416192;26;20012;-46
2024/04/25 00:09:29;;;;;;;15.85;8.20;;;;;;;8.96;68.99;98285.88;5416006;26;20014;-46
2024/04/25 00:11:56;;;;;;;12.88;7.85;;;;;;;8.92;68.41;98284.69;5414190;26;20015;-45
2024/04/25 00:14:21;;;;;;;13.38;9.18;;;;;;;8.83;68.69;98285.06;5414202;26;20039;-46
2024/04/25 00:16:47;;;;;;;10.48;8.77;;;;;;;8.64;68.95;98276.97;5414089;26;20507;-46
2024/04/25 00:19:13;;;;;;;11.30;9.48;;;;;;;8.55;69.72;98278.97;5416009;26;20010;-45
2024/04/25 00:21:38;;;;;;;13.98;9.38;;;;;;;8.52;70.17;98268.91;5414004;26;20018;-45
2024/04/25 00:24:04;;;;;;;11.30;8.82;;;;;;;8.50;70.08;98268.28;5415817;26;20000;-45
2024/04/25 00:26:30;;;;;;;12.80;9.25;;;;;;;8.51;70.38;98272.53;5414015;26;20024;-45
2024/04/25 00:28:56;;;;;;;15.32;10.15;;;;;;;8.58;70.41;98265.50;5415678;26;20414;-45
2024/04/25 00:31:23;;;;;;;12.07;9.75;;;;;;;8.58;69.96;98262.88;5413875;26;19995;-45
2024/04/25 00:33:49;;;;;;;14.25;8.70;;;;;;;8.66;70.33;98261.09;5415672;26;20008;-46
2024/04/25 00:36:15;;;;;;;9.65;8.57;;;;;;;8.83;70.56;98256.28;5413802;26;20003;-46
2024/04/25 00:38:40;;;;;;;10.18;7.78;;;;;;;8.92;70.18;98255.09;5414187;26;20004;-45
2024/04/25 00:41:06;;;;;;;11.43;8.30;;;;;;;8.89;69.96;98247.63;5419392;26;20003;-45
2024/04/25 00:43:32;;;;;;;12.85;7.18;;;;;;;8.94;70.03;98250.47;5417659;26;20015;-46
2024/04/25 00:46:01;;;;;;;11.20;7.22;;;;;;;9.04;69.62;98250.88;5417694;26;20003;-45
2024/04/25 00:48:28;;;;;;;13.65;7.70;;;;;;;9.02;68.79;98241.63;5419375;26;20381;-45
2024/04/25 00:50:55;;;;;;;10.73;7.57;;;;;;;9.09;68.69;98245.03;5419165;26;20004;-45
2024/04/25 00:53:21;;;;;;;10.48;8.02;;;;;;;9.19;68.74;98240.19;5419244;26;20013;-45
2024/04/25 00:55:49;;;;;;;9.90;6.80;;;;;;;9.28;68.44;98236.38;5419169;26;20007;-45
2024/04/25 00:58:16;;;;;;;10.43;7.13;;;;;;;9.34;68.16;98237.38;5419126;26;20462;-45
2024/04/25 01:00:45;;;;;;;12.15;7.50;;;;;;;9.49;68.38;98229.28;5419110;26;20000;-46
2024/04/25 01:03:13;;;;;;;10.63;7.20;;;;;;;9.28;67.16;98228.50;5419214;26;19999;-45
2024/04/25 01:05:40;;;;;;;9.18;6.93;;;;;;;9.01;67.23;98230.31;5418982;26;20027;-46
2024/04/25 01:08:06;;;;;;;16.13;12.30;;;;;;;8.84;67.59;98229.13;5418998;26;20072;-46
2024/04/25 01:10:31;;;;;;;16.48;12.27;;;;;;;8.76;68.05;98217.84;5419075;26;20011;-45
2024/04/25 01:12:57;;;;;;;10.05;7.32;;;;;;;8.77;68.09;98216.00;5419049;26;20069;-45
2024/04/25 01:15:23;;;;;;;12.23;7.70;;;;;;;8.62;68.68;98205.75;5418791;26;20068;-45
2024/04/25 01:17:48;;;;;;;12.50;8.77;;;;;;;8.48;69.74;98212.75;5419041;26;20015;-45
2024/04/25 01:20:14;;;;;;;11.73;9.65;;;;;;;8.35;70.90;98204.84;5417018;26;20011;-46
2024/04/25 01:22:49;;;;;;;18.40;11.43;;;;;;;8.24;71.73;98203.63;5416703;26;19999;-46
2024/04/25 01:25:16;;;;;;;56.38;47.90;;;;;;;8.29;72.19;98198.63;5418477;26;20003;-46
2024/04/25 01:27:44;;;;;;;52.10;37.55;;;;;;;8.41;72.72;98201.50;5418402;26;20000;-46
2024/04/25 01:30:10;;;;;;;14.15;9.50;;;;;;;8.48;72.74;98197.06;5418293;26;20050;-46
2024/04/25 01:32:38;;;;;;;12.38;8.48;;;;;;;8.59;71.34;98190.44;5418339;26;19999;-46
2024/04/25 01:35:06;;;;;;;13.48;8.38;;;;;;;8.47;70.74;98186.81;5418208;26;20003;-46
2024/04/25 01:37:34;;;;;;;15.52;11.75;;;;;;;8.35;71.86;98187.38;5418002;26;20450;-46
2024/04/25 01:40:00;;;;;;;13.38;9.40;;;;;;;8.29;72.56;98185.56;5416644;26;19999;-46
2024/04/25 01:42:27;;;;;;;12.65;8.82;;;;;;;8.11;74.43;98193.94;5418249;26;20015;-46
2024/04/25 01:44:52;;;;;;;12.90;8.30;;;;;;;8.13;75.44;98191.94;5418272;26;20011;-46
2024/04/25 01:47:18;;;;;;;15.63;7.70;;;;;;;8.14;75.16;98183.09;5386673;26;20077;-46
2024/04/25 01:49:44;;;;;;;20.08;10.90;;;;;;;8.08;74.60;98183.88;5417733;26;20008;-45
2024/04/25 01:52:09;;;;;;;21.35;9.95;;;;;;;8.10;74.49;98187.09;5416915;26;20003;-45
2024/04/25 01:54:35;;;;;;;18.77;9.80;;;;;;;8.10;74.50;98181.88;5417986;26;20528;-46
2024/04/25 01:57:01;;;;;;;21.77;18.48;;;;;;;7.92;74.02;98185.03;5417924;26;20400;-46
2024/04/25 01:59:26;;;;;;;46.85;42.25;;;;;;;7.84;74.37;98181.78;5417939;26;20015;-46
2024/04/25 02:01:52;;;;;;;21.67;19.35;;;;;;;7.77;74.69;98179.16;5417921;26;20000;-46
2024/04/25 02:04:18;;;;;;;17.27;13.15;;;;;;;7.75;74.75;98179.34;5417952;26;19999;-46
2024/04/25 02:06:43;;;;;;;17.58;10.07;;;;;;;7.74;75.09;98172.50;5416070;26;20014;-46
2024/04/25 02:09:09;;;;;;;15.00;9.68;;;;;;;7.69;75.48;98174.91;5418158;26;20386;-45
2024/04/25 02:11:35;;;;;;;13.32;8.90;;;;;;;7.77;75.31;98172.13;5417816;26;20031;-45
2024/04/25 02:14:00;;;;;;;12.13;9.35;;;;;;;7.68;75.84;98164.63;5415989;26;20014;-46
2024/04/25 02:16:26;;;;;;;17.23;10.45;;;;;;;7.67;75.27;98165.66;5417759;26;20003;-46
2024/04/25 02:18:52;;;;;;;30.13;18.58;;;;;;;7.61;75.41;98154.16;5418032;26;20011;-46
2024/04/25 02:26:45;;;;;;;12.48;9.38;;;;;;;7.52;76.30;98160.53;5416298;26;20465;-45
2024/04/25 02:29:11;;;;;;;13.32;9.23;;;;;;;7.59;76.81;98164.00;5415999;26;20035;-45
2024/04/25 02:31:40;;;;;;;20.42;14.57;;;;;;;7.77;76.70;98163.47;5417497;26;20003;-45
2024/04/25 02:34:09;;;;;;;15.63;10.25;;;;;;;7.86;76.41;98161.50;5417469;26;20011;-45
2024/04/25 02:36:38;;;;;;;10.23;8.88;;;;;;;7.86;75.67;98164.91;5415212;26;20364;-46
2024/04/25 02:39:04;;;;;;;34.95;10.80;;;;;;;7.86;75.65;98169.34;5417752;26;20003;-45
2024/04/25 02:41:29;;;;;;;16.73;11.02;;;;;;;7.92;75.85;98171.16;5416112;26;20148;-46
2024/04/25 02:43:55;;;;;;;16.13;9.95;;;;;;;8.04;75.98;98172.19;5417767;26;20003;-46
2024/04/25 02:46:21;;;;;;;19.52;8.52;;;;;;;8.21;75.71;98164.81;5417561;26;20014;-46
2024/04/25 02:48:47;;;;;;;23.05;9.10;;;;;;;8.31;75.06;98160.03;5417648;26;20003;-45
2024/04/25 02:51:13;;;;;;;16.27;10.07;;;;;;;8.31;74.52;98159.19;5417562;26;20101;-45
2024/04/25 02:53:39;;;;;;;16.60;9.20;;;;;;;8.30;74.41;98161.00;5417513;26;20003;-45
2024/04/25 02:56:05;;;;;;;15.65;9.30;;;;;;;8.36;74.22;98162.03;5417410;26;20003;-45
2024/04/25 02:58:32;;;;;;;18.83;9.23;;;;;;;8.43;74.28;98168.13;5417392;26;20049;-45
2024/04/25 03:00:59;;;;;;;20.95;18.48;;;;;;;8.56;74.27;98162.09;5417520;26;19999;-45
2024/04/25 03:03:26;;;;;;;14.60;9.48;;;;;;;8.66;73.64;98157.25;5415041;26;20003;-45
2024/04/25 03:05:52;;;;;;;19.15;8.57;;;;;;;8.69;73.16;98161.28;5417485;26;20000;-46
2024/04/25 03:08:17;;;;;;;12.88;9.32;;;;;;;8.72;72.88;98158.28;5417394;26;20472;-46
2024/04/25 03:10:43;;;;;;;13.60;9.57;;;;;;;8.42;72.19;98158.66;5417251;26;20004;-46
2024/04/25 03:13:08;;;;;;;13.88;9.25;;;;;;;8.28;72.41;98157.00;5415644;26;19999;-46
2024/04/25 03:15:34;;;;;;;9.85;8.75;;;;;;;7.99;71.92;98158.94;5415268;26;20050;-46
2024/04/25 03:18:01;;;;;;;13.30;8.50;;;;;;;7.68;72.86;98162.03;5417291;26;20010;-45
2024/04/25 03:20:27;;;;;;;14.45;8.10;;;;;;;7.60;73.69;98158.56;5417208;26;19999;-46
2024/04/25 03:22:53;;;;;;;16.77;8.93;;;;;;;7.86;74.12;98153.66;5415299;26;20000;-45
2024/04/25 03:25:19;;;;;;;14.38;9.70;;;;;;;8.12;73.63;98158.97;5416737;26;20028;-45
2024/04/25 03:27:45;;;;;;;27.88;24.88;;;;;;;8.10;73.03;98149.72;5416959;26;20014;-46
2024/04/25 03:30:11;;;;;;;16.63;9.68;;;;;;;7.85;72.26;98154.66;5416614;26;20003;-45
2024/04/25 03:32:37;;;;;;;13.05;9.02;;;;;;;7.73;72.78;98152.63;5416675;26;20035;-45
2024/04/25 03:35:03;;;;;;;11.80;8.73;;;;;;;7.77;73.23;98155.66;5416702;26;20004;-46
2024/04/25 03:37:29;;;;;;;14.57;10.23;;;;;;;8.04;73.25;98150.50;5416349;26;20349;-45
2024/04/25 03:39:55;;;;;;;15.95;8.68;;;;;;;8.24;72.78;98146.13;5416616;26;20000;-46
2024/04/25 03:42:22;;;;;;;13.63;8.43;;;;;;;8.36;72.65;98154.97;5414835;26;20010;-45
2024/04/25 03:44:48;;;;;;;17.10;13.10;;;;;;;8.41;71.79;98151.81;5414792;26;20018;-46
2024/04/25 03:47:14;;;;;;;11.18;8.65;;;;;;;8.28;70.91;98141.31;5414607;26;19999;-45
2024/04/25 03:49:40;;;;;;;14.30;9.60;;;;;;;8.06;70.33;98141.44;5416491;26;20080;-46
2024/04/25 03:52:05;;;;;;;12.52;8.75;;;;;;;7.85;70.34;98146.81;5414538;26;20003;-46
2024/04/25 03:54:31;;;;;;;10.70;8.40;;;;;;;7.76;71.00;98139.16;5416288;26;20014;-46
2024/04/25 03:56:59;;;;;;;10.57;7.65;;;;;;;7.66;71.77;98137.91;5414615;26;20010;-45
2024/04/25 03:59:26;;;;;;;15.82;8.30;;;;;;;7.52;71.69;98137.03;5416416;26;20011;-45
2024/04/25 04:01:51;;;;;;;15.85;13.43;;;;;;;7.54;72.50;98135.84;5416211;26;20460;-45
2024/04/25 04:04:18;;;;;;;11.02;8.82;;;;;;;7.68;72.40;98128.06;5416141;26;20007;-46
2024/04/25 04:06:43;;;;;;;17.33;8.68;;;;;;;7.63;72.05;98120.84;5414439;26;20004;-46
2024/04/25 04:09:09;;;;;;;11.60;9.45;;;;;;;7.51;71.90;98120.56;5416150;26;20000;-45
2024/04/25 04:11:38;;;;;;;13.27;9.02;;;;;;;7.48;72.89;98115.72;5416142;26;20475;-45
2024/04/25 04:14:04;;;;;;;19.58;9.85;;;;;;;7.30;72.48;98118.84;5417054;26;20057;-46
2024/04/25 04:16:30;;;;;;;16.77;9.35;;;;;;;7.18;72.67;98121.22;5417778;26;20007;-45
2024/04/25 04:18:55;;;;;;;18.25;9.45;;;;;;;7.23;73.40;98125.06;5419712;26;20346;-45
2024/04/25 04:21:21;;;;;;;14.95;12.38;;;;;;;7.29;73.22;98121.69;5419504;26;20003;-45
2024/04/25 04:23:47;;;;;;;18.75;10.45;;;;;;;7.29;73.75;98122.47;5419441;26;19999;-46
2024/04/25 04:26:13;;;;;;;13.48;9.43;;;;;;;7.38;74.04;98117.91;5419275;26;19999;-45
2024/04/25 04:28:39;;;;;;;12.18;9.02;;;;;;;7.44;74.21;98113.72;5417581;26;20004;-45
2024/04/25 04:31:06;;;;;;;14.57;8.77;;;;;;;7.46;74.24;98117.72;5419274;26;20007;-46
2024/04/25 04:33:34;;;;;;;9.32;8.15;;;;;;;7.42;74.12;98126.16;5419476;26;20046;-45
2024/04/25 04:36:03;;;;;;;15.65;9.55;;;;;;;7.37;73.93;98118.91;5419101;26;20010;-45
2024/04/25 04:38:33;;;;;;;10.43;8.15;;;;;;;7.47;73.87;98124.56;5417181;26;20015;-45
2024/04/25 04:40:59;;;;;;;12.63;9.10;;;;;;;7.37;72.82;98119.72;5419231;26;20000;-45
2024/04/25 04:43:24;;;;;;;12.13;9.18;;;;;;;7.28;72.84;98115.63;5419136;26;20461;-46
2024/04/25 04:45:55;;;;;;;14.93;9.48;;;;;;;7.12;72.59;98121.16;5419035;26;20069;-45
2024/04/25 04:48:22;;;;;;;16.98;9.02;;;;;;;7.00;72.67;98119.13;5419054;26;20010;-45
2024/04/25 04:50:48;;;;;;;15.77;9.05;;;;;;;6.88;73.56;98122.41;5418939;26;20016;-46
2024/04/25 04:53:13;;;;;;;19.70;10.48;;;;;;;6.94;73.84;98119.03;5387596;26;20014;-45
2024/04/25 04:55:40;;;;;;;14.82;8.10;;;;;;;7.02;73.66;98112.88;5419000;26;20454;-45
2024/04/25 04:58:08;;;;;;;13.38;9.95;;;;;;;7.13;73.50;98123.59;5418986;26;20018;-45
2024/04/25 05:00:34;;;;;;;14.43;10.75;;;;;;;7.06;72.78;98119.31;5359075;26;19999;-45
2024/04/25 05:03:00;;;;;;;16.45;10.05;;;;;;;6.90;73.17;98116.03;5418919;26;20549;-45
2024/04/25 05:05:26;;;;;;;19.35;9.88;;;;;;;7.01;74.33;98114.69;5418692;26;20011;-45
2024/04/25 05:07:57;;;;;;;15.32;10.40;;;;;;;7.22;73.28;98113.00;5416933;26;20032;-45
2024/04/25 05:10:24;;;;;;;12.10;9.55;;;;;;;7.18;73.40;98110.78;5418630;26;20000;-46
2024/04/25 05:12:52;;;;;;;16.95;11.43;;;;;;;7.08;73.42;98112.13;5418641;26;20079;-46
2024/04/25 05:15:17;;;;;;;14.15;10.02;;;;;;;7.00;73.81;98115.69;5418489;26;20377;-46
2024/04/25 05:17:43;;;;;;;12.65;10.40;;;;;;;7.06;74.10;98111.50;5416969;26;20043;-46
2024/04/25 05:20:09;;;;;;;15.68;10.55;;;;;;;7.15;74.51;98120.81;5416682;26;20457;-46
2024/04/25 05:22:36;;;;;;;12.70;10.02;;;;;;;7.30;73.85;98116.25;5416776;26;20082;-46
2024/04/25 05:25:02;;;;;;;17.73;10.02;;;;;;;7.49;73.46;98119.16;5418185;26;20000;-45
2024/04/25 05:27:28;;;;;;;13.73;10.02;;;;;;;7.72;73.06;98114.41;5416802;26;20010;-46
2024/04/25 05:29:54;;;;;;;14.75;10.07;;;;;;;7.83;72.84;98109.63;5418493;26;20032;-46
2024/04/25 05:32:19;;;;;;;14.55;10.25;;;;;;;7.90;71.98;98102.63;5416670;26;20034;-46
2024/04/25 05:34:45;;;;;;;16.00;10.73;;;;;;;7.72;71.82;98103.97;5418442;26;20067;-46
2024/04/25 05:37:11;;;;;;;14.23;9.95;;;;;;;7.68;72.28;98097.53;5416210;26;20530;-46
2024/04/25 05:39:37;;;;;;;13.55;9.40;;;;;;;7.68;72.27;98097.53;5416550;26;20004;-46
2024/04/25 05:42:02;;;;;;;19.10;12.00;;;;;;;7.55;71.54;98102.72;5418167;26;20014;-46
2024/04/25 05:44:28;;;;;;;16.08;10.57;;;;;;;7.56;71.34;98104.31;5357939;26;20086;-46
2024/04/25 05:46:54;;;;;;;15.77;11.63;;;;;;;7.65;71.41;98100.53;5416343;26;20011;-46
2024/04/25 05:49:20;;;;;;;22.83;10.88;;;;;;;8.48;71.14;98116.00;5418116;26;20014;-46
2024/04/25 05:51:46;;;;;;;21.00;10.40;;;;;;;10.04;68.31;98113.56;5416397;26;19999;-46
2024/04/25 05:54:11;;;;;;;10.95;9.48;;;;;;;11.76;64.16;98113.81;5416263;26;20008;-46
2024/04/25 05:56:37;;;;;;;12.88;9.38;;;;;;;13.68;59.15;98102.19;5417984;26;20011;-45
2024/04/25 05:59:03;;;;;;;17.13;9.13;;;;;;;15.02;54.33;98102.59;5418055;26;20011;-46
2024/04/25 06:01:28;;;;;;;18.10;9.23;;;;;;;16.31;51.25;98090.56;5416177;26;20075;-45
2024/04/25 06:03:54;;;;;;;19.33;9.18;;;;;;;17.30;47.49;98100.78;5418041;26;20015;-46
2024/04/25 06:06:20;;;;;;;16.52;9.45;;;;;;;17.73;43.30;98091.66;5417970;26;20003;-46
2024/04/25 06:08:45;;;;;;;19.88;9.27;;;;;;;17.94;43.76;98092.50;5417997;26;20003;-46
2024/04/25 06:11:11;;;;;;;23.92;9.73;;;;;;;18.56;42.46;98098.66;5417877;26;20018;-46
2024/04/25 06:13:37;;;;;;;22.13;10.63;;;;;;;19.43;41.42;98096.91;5417761;26;20453;-46
2024/04/25 06:16:06;;;;;;;15.68;10.13;;;;;;;20.56;40.15;98099.69;5415987;26;20022;-46
2024/04/25 06:18:31;;;;;;;25.08;10.15;;;;;;;21.57;37.95;98098.97;5357306;26;20077;-46
2024/04/25 06:20:57;;;;;;;12.55;8.70;;;;;;;22.37;35.20;98093.84;5417793;26;20007;-44
2024/04/25 06:23:23;;;;;;;16.20;9.13;;;;;;;22.67;33.20;98101.34;5417583;26;20011;-45
2024/04/25 06:25:49;;;;;;;15.77;10.50;;;;;;;22.44;32.49;98096.97;5417720;26;19999;-44
2024/04/25 06:28:14;;;;;;;17.25;8.55;;;;;;;22.80;31.85;98090.97;5416193;26;19999;-45
2024/04/25 06:30:40;;;;;;;18.05;9.10;;;;;;;22.97;31.14;98087.75;5417809;26;20050;-45
2024/04/25 06:33:06;;;;;;;11.80;10.00;;;;;;;23.10;30.73;98082.44;5416107;26;20075;-44
2024/04/25 06:35:31;;;;;;;17.35;8.75;;;;;;;23.33;30.00;98075.28;5415995;26;20003;-44
2024/04/25 06:37:57;;;;;;;15.98;8.18;;;;;;;23.91;29.82;98062.31;5416199;26;20014;-45
2024/04/25 06:40:22;;;;;;;10.48;8.07;;;;;;;24.16;28.86;98062.78;5417447;26;19999;-44
2024/04/25 06:42:48;;;;;;;14.48;10.98;;;;;;;23.73;29.37;98048.72;5415679;26;20515;-44
2024/04/25 06:45:16;;;;;;;15.07;12.20;;;;;;;23.08;30.09;98049.00;5417368;26;20013;-44
2024/04/25 06:47:41;;;;;;;9.57;8.35;;;;;;;22.78;29.63;98045.00;5417469;26;20016;-44
2024/04/25 06:50:07;;;;;;;23.45;21.02;;;;;;;21.50;32.00;98037.91;5415459;26;20070;-44
2024/04/25 06:52:33;;;;;;;18.10;16.23;;;;;;;21.12;32.83;98031.69;5415572;26;20000;-44
2024/04/25 06:54:58;;;;;;;13.20;8.82;;;;;;;20.99;31.96;98033.19;5417228;26;20003;-45
2024/04/25 06:57:26;;;;;;;18.38;11.10;;;;;;;20.02;33.78;98034.84;5415355;26;20004;-44
2024/04/25 06:59:52;;;;;;;25.75;10.18;;;;;;;19.85;34.36;98037.09;5417137;26;20050;-45
2024/04/25 07:02:19;;;;;;;14.07;8.13;;;;;;;19.78;32.81;98044.59;5417090;26;20018;-44
2024/04/25 07:04:46;;;;;;;17.48;8.75;;;;;;;19.77;33.67;98043.81;5417100;26;19999;-44
2024/04/25 07:07:12;;;;;;;13.98;8.90;;;;;;;19.93;33.06;98045.28;5416915;26;20042;-45
2024/04/25 07:09:37;;;;;;;20.40;9.60;;;;;;;20.10;33.23;98046.75;5415328;26;20004;-44
2024/04/25 07:12:05;;;;;;;29.13;14.57;;;;;;;20.88;33.37;98037.81;5417073;26;20091;-45
2024/04/25 07:14:31;;;;;;;17.58;7.88;;;;;;;20.97;31.01;98039.84;5415211;26;20011;-45
2024/04/25 07:16:57;;;;;;;9.60;7.57;;;;;;;20.35;32.14;98041.22;5416790;26;20003;-44
2024/04/25 07:19:22;;;;;;;27.45;12.77;;;;;;;19.92;33.71;98035.72;5417089;26;20014;-45
2024/04/25 07:21:48;;;;;;;63.80;12.50;;;;;;;20.48;33.10;98028.31;5416771;26;20003;-44
2024/04/25 07:24:14;;;;;;;65.40;11.75;;;;;;;20.88;32.04;98015.69;5414994;26;20007;-44
2024/04/25 07:26:39;;;;;;;107.53;14.30;;;;;;;20.97;31.03;98011.31;5385500;26;19999;-44
2024/04/25 07:29:05;;;;;;;150.13;36.75;;;;;;;19.27;33.05;98016.38;5416684;26;20392;-44
2024/04/25 07:31:31;;;;;;;36.10;14.25;;;;;;;18.48;34.97;98035.44;5416686;26;20365;-44
2024/04/25 07:33:56;;;;;;;26.02;9.20;;;;;;;20.54;32.79;98045.88;5414929;26;20010;-44
2024/04/25 07:36:23;;;;;;;17.48;13.85;;;;;;;22.65;30.17;98050.03;5416307;26;20007;-45
2024/04/25 07:38:49;;;;;;;14.98;13.38;;;;;;;24.41;27.53;98040.72;5416878;26;20449;-45
2024/04/25 07:41:14;;;;;;;17.17;15.15;;;;;;;25.85;25.05;98040.22;5416793;26;20034;-45
2024/04/25 07:43:40;;;;;;;27.48;23.10;;;;;;;26.64;24.21;98034.75;5416834;26;20014;-45
2024/04/25 07:46:11;;;;;;;17.77;12.93;;;;;;;26.22;24.09;98021.88;5416929;26;20003;-45
2024/04/25 07:48:37;;;;;;;27.40;19.92;;;;;;;25.07;25.07;98021.28;5415014;26;20097;-44
2024/04/25 07:51:03;;;;;;;19.42;13.80;;;;;;;24.18;25.79;98017.69;5416728;26;20407;-45
2024/04/25 07:53:29;;;;;;;27.75;15.60;;;;;;;23.47;26.39;98013.66;5415110;26;20457;-45
2024/04/25 07:55:55;;;;;;;11.23;8.38;;;;;;;22.39;27.21;98022.94;5416403;26;20009;-44
2024/04/25 07:58:20;;;;;;;28.25;21.60;;;;;;;21.49;28.83;98028.31;5416659;26;20418;-45
2024/04/25 08:00:46;;;;;;;20.45;18.13;;;;;;;23.12;28.27;98012.53;5416536;26;20372;-45
2024/04/25 08:03:12;;;;;;;23.08;19.40;;;;;;;25.35;25.69;98003.03;5414701;26;20010;-45
2024/04/25 08:05:37;;;;;;;34.28;20.92;;;;;;;26.39;24.65;97996.03;5414815;26;20007;-45
2024/04/25 08:08:03;;;;;;;11.35;8.00;;;;;;;27.04;22.80;97991.34;5414565;26;20014;-45
2024/04/25 08:10:29;;;;;;;10.73;8.75;;;;;;;27.53;21.97;97996.25;5416359;26;20450;-45
2024/04/25 08:12:55;;;;;;;24.48;12.27;;;;;;;27.69;22.21;97997.25;5416392;26;20018;-45
2024/04/25 08:15:20;;;;;;;14.10;8.60;;;;;;;28.19;20.73;97990.13;5416203;26;20014;-45
2024/04/25 08:17:48;;;;;;;19.02;11.00;;;;;;;28.43;20.98;97984.81;5416320;26;20072;-45
2024/04/25 08:20:15;;;;;;;11.10;7.63;;;;;;;28.74;20.11;97982.72;5416070;26;20015;-45
2024/04/25 08:22:40;;;;;;;11.45;8.00;;;;;;;29.07;19.86;97982.56;5416487;26;19999;-45
2024/04/25 08:25:06;;;;;;;7.70;5.13;;;;;;;29.06;19.62;97983.72;5414340;26;20006;-45
2024/04/25 08:27:33;;;;;;;9.02;4.90;;;;;;;29.03;19.42;97981.69;5416167;26;20000;-46
2024/04/25 08:29:59;;;;;;;10.32;4.85;;;;;;;28.61;19.20;97980.00;5415766;26;20023;-46
2024/04/25 08:32:25;;;;;;;9.85;4.20;;;;;;;28.25;19.12;97972.59;5415575;26;20450;-45
2024/04/25 08:34:50;;;;;;;11.35;6.30;;;;;;;28.02;19.64;97974.94;5413894;26;20000;-45
2024/04/25 08:37:16;;;;;;;16.45;4.70;;;;;;;28.19;19.19;97969.38;5384160;26;20066;-45
2024/04/25 08:39:42;;;;;;;10.85;3.53;;;;;;;27.90;18.97;97972.97;5384715;26;20434;-45
2024/04/25 08:42:10;;;;;;;15.23;6.95;;;;;;;27.83;19.33;97972.69;5414114;26;20070;-45
2024/04/25 08:44:39;;;;;;;31.10;7.40;;;;;;;28.45;19.45;97966.38;5415759;26;20000;-45
2024/04/25 08:47:05;;;;;;;16.48;6.20;;;;;;;28.32;19.38;97964.75;5413932;26;20011;-45
2024/04/25 08:49:34;;;;;;;35.50;5.88;;;;;;;28.50;19.06;97962.69;5413954;26;20003;-45
2024/04/25 08:52:03;;;;;;;19.10;4.85;;;;;;;27.98;19.15;97955.13;5413811;26;20000;-45
2024/04/25 08:54:30;;;;;;;17.40;5.50;;;;;;;26.61;20.12;97950.06;5415560;26;19999;-45
2024/04/25 08:56:56;;;;;;;11.68;4.13;;;;;;;26.63;20.79;97952.44;5415381;26;20076;-45
2024/04/25 08:59:22;;;;;;;33.65;6.70;;;;;;;26.86;20.93;97950.25;5415710;26;20012;-45
2024/04/25 09:01:50;;;;;;;14.05;4.32;;;;;;;26.76;20.33;97950.63;5419050;26;20003;-45
2024/04/25 09:04:19;;;;;;;11.38;4.60;;;;;;;27.34;20.27;97953.59;5419144;26;20014;-45
2024/04/25 09:06:45;;;;;;;13.35;4.88;;;;;;;28.47;19.44;97947.13;5419181;26;19996;-45
2024/04/25 09:09:15;;;;;;;14.80;6.28;;;;;;;28.99;19.13;97940.25;5417460;26;19996;-45
2024/04/25 09:11:41;;;;;;;11.52;5.07;;;;;;;29.79;18.29;97942.19;5419317;26;19999;-45
2024/04/25 09:14:09;;;;;;;14.23;7.85;;;;;;;29.82;17.80;97938.00;5417368;26;20350;-45
2024/04/25 09:16:38;;;;;;;9.10;4.75;;;;;;;29.73;17.77;97945.50;5418917;26;20000;-46
2024/04/25 09:19:04;;;;;;;7.18;3.95;;;;;;;29.79;17.58;97944.91;5417315;26;20008;-45
2024/04/25 09:21:30;;;;;;;13.00;3.90;;;;;;;29.70;17.83;97949.66;5418799;26;20000;-46
2024/04/25 09:23:56;;;;;;;13.43;4.30;;;;;;;29.67;17.74;97951.13;5418809;26;20015;-45
2024/04/25 09:26:21;;;;;;;17.10;4.15;;;;;;;30.31;17.85;97937.75;5418789;26;20354;-45
2024/04/25 09:28:48;;;;;;;21.38;4.68;;;;;;;31.24;17.09;97937.16;5418744;26;20077;-46
2024/04/25 09:31:15;;;;;;;30.48;4.43;;;;;;;31.48;16.96;97931.84;5418458;26;20012;-45
2024/04/25 09:33:40;;;;;;;18.48;5.72;;;;;;;31.61;16.77;97936.78;5418499;26;20333;-46
2024/04/25 09:36:08;;;;;;;13.93;5.68;;;;;;;32.24;16.09;97929.38;5416528;26;20000;-45
2024/04/25 09:38:34;;;;;;;7.32;4.15;;;;;;;32.42;15.31;97930.44;5418100;26;20453;-45
2024/04/25 09:41:01;;;;;;;13.68;4.85;;;;;;;32.60;14.95;97929.97;5418251;26;19999;-46
2024/04/25 09:43:27;;;;;;;10.60;3.50;;;;;;;32.90;15.23;97919.16;5418268;26;20015;-46
2024/04/25 09:45:58;;;;;;;30.75;5.03;;;;;;;33.43;15.12;97910.91;5418142;26;20003;-46
2024/04/25 09:48:30;;;;;;;18.73;3.75;;;;;;;32.94;14.83;97911.03;5418294;26;20003;-46
2024/04/25 09:51:01;;;;;;;10.07;3.45;;;;;;;29.96;15.75;97910.53;5418169;26;20032;-45
2024/04/25 09:54:08;;;;;;;9.27;3.88;;;;;;;28.27;18.38;97905.59;5416714;26;20019;-45
2024/04/25 09:56:37;;;;;;;7.95;2.78;;;;;;;28.63;18.08;97915.66;5417167;26;19999;-45
2024/04/25 09:59:23;;;;;;;7.78;2.70;;;;;;;29.32;16.56;97920.38;5416230;26;20024;-45
2024/04/25 10:01:52;;;;;;;6.20;2.88;;;;;;;29.23;16.69;97909.72;5418008;26;20419;-45
2024/04/25 10:04:18;;;;;;;14.73;3.35;;;;;;;28.61;16.29;97909.00;5417933;26;19999;-46
2024/04/25 10:06:44;;;;;;;12.10;3.33;;;;;;;26.21;18.21;97901.16;5417879;26;20003;-46
2024/04/25 10:09:11;;;;;;;8.30;2.60;;;;;;;25.28;19.15;97906.81;5416275;26;20004;-46
2024/04/25 10:11:38;;;;;;;136.25;58.88;;;;;;;25.83;18.95;97909.91;5414629;26;20043;-45
2024/04/25 10:14:04;;;;;;;29.63;14.93;;;;;;;26.51;18.19;97908.13;5416044;26;20000;-45
2024/04/25 10:16:30;;;;;;;50.47;33.95;;;;;;;26.84;17.73;97912.09;5416108;26;20003;-45
2024/04/25 10:18:55;;;;;;;6.03;3.08;;;;;;;26.59;16.47;97903.84;5386404;26;20023;-45
2024/04/25 10:21:22;;;;;;;9.73;3.00;;;;;;;25.93;16.75;97906.13;5415929;26;20003;-45
2024/04/25 10:23:50;;;;;;;10.05;4.07;;;;;;;25.66;17.03;97894.63;5415903;26;20015;-45
2024/04/25 10:26:20;;;;;;;14.77;3.47;;;;;;;26.69;17.31;97886.53;5417648;26;20007;-45
2024/04/25 10:29:02;;;;;;;23.88;4.10;;;;;;;27.13;16.65;97894.31;5417654;26;20000;-45
2024/04/25 10:31:35;;;;;;;4.60;1.65;;;;;;;26.81;16.17;97883.13;5386232;26;20000;-45
2024/04/25 10:34:01;;;;;;;19.73;3.28;;;;;;;27.09;15.94;97883.41;5417500;26;19999;-45
2024/04/25 10:36:28;;;;;;;17.75;2.95;;;;;;;26.70;15.77;97880.03;5417213;26;20060;-45
2024/04/25 10:38:56;;;;;;;7.38;2.00;;;;;;;25.79;16.02;97872.13;5417729;26;20018;-45
2024/04/25 10:41:39;;;;;;;10.27;2.08;;;;;;;25.69;17.68;97877.84;5415859;26;20007;-45
2024/04/25 10:44:06;;;;;;;6.97;1.77;;;;;;;26.46;16.61;97857.19;5417440;26;20003;-45
2024/04/25 10:46:32;;;;;;;5.45;2.00;;;;;;;27.13;15.36;97859.31;5417309;26;20031;-45
2024/04/25 10:48:57;;;;;;;9.07;2.40;;;;;;;27.39;15.40;97862.59;5415621;26;20359;-46
2024/04/25 10:51:23;;;;;;;3.13;1.60;;;;;;;27.61;14.91;97853.34;5417434;26;20461;-46
2024/04/25 10:53:49;;;;;;;4.75;1.88;;;;;;;27.58;15.45;97855.91;5417294;26;20014;-46
2024/04/25 10:56:19;;;;;;;5.15;1.60;;;;;;;27.55;15.13;97865.44;5417078;26;20450;-46
2024/04/25 10:58:55;;;;;;;7.45;1.52;;;;;;;27.88;14.51;97864.66;5415390;26;19999;-46
2024/04/25 11:01:28;;;;;;;8.50;1.77;;;;;;;27.70;14.06;97856.72;5417169;26;20003;-46
2024/04/25 11:03:59;;;;;;;7.93;2.13;;;;;;;27.17;15.46;97852.16;5415586;26;20003;-46
2024/04/25 11:06:26;;;;;;;5.70;1.88;;;;;;;26.96;14.81;97860.22;5417190;26;20047;-45
2024/04/25 11:08:53;;;;;;;7.78;1.70;;;;;;;26.36;15.32;97856.75;5417012;26;20000;-46
2024/04/25 11:11:20;;;;;;;4.93;1.60;;;;;;;25.89;15.24;97855.66;5415225;26;20079;-45
2024/04/25 11:13:46;;;;;;;10.30;1.80;;;;;;;25.94;15.70;97851.25;5415208;26;20011;-45
2024/04/25 11:16:11;;;;;;;6.75;2.05;;;;;;;26.64;15.56;97847.16;5416978;26;20004;-46
2024/04/25 11:18:38;;;;;;;18.83;3.63;;;;;;;27.20;15.44;97854.16;5417012;26;19999;-46
2024/04/25 11:21:07;;;;;;;11.95;2.55;;;;;;;27.40;14.47;97839.91;5415084;26;20014;-45
2024/04/25 11:23:33;;;;;;;7.65;2.90;;;;;;;27.26;14.34;97842.09;5416426;26;20443;-46
2024/04/25 11:26:03;;;;;;;11.98;2.53;;;;;;;26.50;14.91;97833.91;5416826;26;20481;-46
2024/04/25 11:28:28;;;;;;;15.38;4.20;;;;;;;26.20;15.59;97829.63;5416870;26;19999;-45
2024/04/25 11:30:55;;;;;;;16.17;2.92;;;;;;;26.14;15.87;97830.91;5416636;26;20087;-45